ULLIULPB

Guest
Details From ULLI - Saint Petersburg Pulkovo
To ULPB - BESOVETS
Flight Number -
Tags generated
Created
Modified
Stats Distance 170 nm / 315 km
Max Altitude 13,900 ft / 4,237 m
Waypoints 3
Social Downloads 1
Likes 0
Share VATSIM

Download

Looking for another format? Having issues loading an existing format? Contact us
Advertisement - Login to hide

Notes

Basic altitude profile: - Ascent Rate: 2500ft/min - Ascent Speed: 250kts - Cruise Altitude: 32000ft - Cruise Speed: 420kts - Descent Rate: 1500ft/min - Descent Speed: 250kts Options: - Use NATs: yes - Use PACOTS: yes - Use low airways: yes - Use high airways: yes

Route

ULLI VIDLA ULPB

ID Type Via Altitude Latitude Longitude Leg Dist Tot Dist Heading (true) Name
O ULLI APT - 0 ft / 0 m 59.80029˚ 30.26250˚ - 0 nm - Saint Petersburg Pulkovo
VIDLA FIX - 13,900 ft / 4,237 m 61.20000˚ 32.39750˚ 105 nm 105 nm 36° / 38° -
O ULPB APT - 0 ft / 0 m 61.88516˚ 34.15474˚ 64 nm 170 nm 50° / 51° BESOVETS

Altitude Profile

Advertisement - Login to hide

Weather


0- 5 10 15 20 25 30 35+ Temperature / ° C

Clouds and Precipitation
Forecast for 2017-12-13 00:00 UTC. Updated an hour ago

Ground ~20,000 ft ~40,000 ft Winds

ULLI

Details ICAO ULLI (LED)
Name Saint Petersburg Pulkovo
Region Russia
Timezone Europe/Moscow (UTC+3.0)
Stats Elevation 78 ft / 24 m (AMSL)
Location 59.800292° 30.262504°
Runways 2
Magnetic Variation 10.695° E

METAR

ULLI 130000Z 17006G11MPS 130V230 9999 -SHRA SCT009 BKN018CB OVC036 03/02 Q0990 R10R/650345 NOSIG RMK

Decode

TAF

TAF TAF ULLI 122258Z 1300/1324 17006G13MPS 6000 BKN011 BKN020 TEMPO 1300/1304 21004G09MPS 3100 -SHRA BKN007 BKN015CB BECMG 1304/1306 23005G11MPS TEMPO 1304/1312 20007G14MPS 3100 -SHSNRA BKN007 BKN015CB TEMPO 1316/1324 3100 -SHSN BLSN BKN011 BKN015CB

Decode

Departure Runways

ID Width Length Bearing (true) Bearing (mag) Surface Threshold Offset Overrun Length
10L 197 ft / 60 m 11,115 ft / 3,388 m 106.38° 95.69° Concrete 0 ft / 0 m 235 ft / 72 m
10R 197 ft / 60 m 12,365 ft / 3,769 m 106.40° 95.71° Concrete 0 ft / 0 m 220 ft / 67 m
28L 197 ft / 60 m 12,365 ft / 3,769 m 286.46° 275.77° Concrete 0 ft / 0 m 260 ft / 79 m
28R 197 ft / 60 m 11,115 ft / 3,388 m 286.44° 275.75° Concrete 0 ft / 0 m 240 ft / 73 m

ULPB

Details ICAO ULPB (PES)
Name BESOVETS
Region Russia
Timezone Europe/Moscow (UTC+3.0)
Stats Elevation 151 ft / 46 m (AMSL)
Location 61.885161° 34.154744°
Runways 1
Magnetic Variation 13.002° E

METAR

ULPB 130000Z AUTO 16003MPS 080V210 9999 // ///016/// 01/00 Q0991 RMK QFE739/0985

Decode

TAF

Not found

Destination Runways

ID Width Length Bearing (true) Bearing (mag) Surface Threshold Offset Overrun Length
02 157 ft / 48 m 8,192 ft / 2,497 m 23.19° 10.19° Concrete 0 ft / 0 m 0 ft / 0 m
20 157 ft / 48 m 8,192 ft / 2,497 m 203.21° 190.21° Concrete 0 ft / 0 m 0 ft / 0 m

Popular Alternatives